Terminal Aerodrome Forecast
Issued by NWS Albuquerque, NM

Home | Current Version | Previous Version | Text Only | Print | Product List | Glossary On
Versions: 1 2 3 4 5 6 7 8 9 10 11 12 13 14 15
000
FTUS45 KABQ 131100
TAFABQ
TAF
KABQ 131140Z 1312/1412 10011KT P6SM SCT070 BKN130
     FM131900 15012KT P6SM SCT080 BKN120
     FM132100 12011G18KT P6SM VCTS SCT080CB BKN120
     FM140200 08011KT P6SM VCSH SCT070 BKN100
     FM140600 09012G22KT P6SM FEW060 BKN100=

USA.gov is the U.S. government's official web portal to all federal, state and local government web resources and services.